Time;durP1;ratioP1;P1;durP2;ratioP2;P2;SDS_P1;SDS_P2;PMS_P1;PMS_P2;Temp;Humidity;BMP_temperature;BMP_pressure;BME280_temperature;BME280_humidity;BME280_pressure;Samples;Min_cycle;Max_cycle;Signal;HPM_P1;HPM_P2
2022/11/19 00:01:14;;;;;;;6.35;3.45;;;20.50;99.90;;;;;;4245184;28;20234;-77
2022/11/19 00:03:18;;;;;;;5.25;3.30;;;20.50;99.90;;;;;;4245247;28;20800;-77
2022/11/19 00:05:21;;;;;;;4.80;3.35;;;20.50;99.90;;;;;;4245305;28;20209;-77
2022/11/19 00:07:23;;;;;;;6.18;3.72;;;20.50;99.90;;;;;;4244963;28;20230;-77
2022/11/19 00:09:25;;;;;;;5.28;3.38;;;20.50;99.90;;;;;;4244964;28;20664;-77
2022/11/19 00:13:50;;;;;;;4.18;3.10;;;20.50;99.90;;;;;;4245459;28;20237;-77
2022/11/19 00:15:52;;;;;;;4.07;3.13;;;20.50;99.90;;;;;;4239240;27;20315;-77
2022/11/19 00:17:56;;;;;;;3.90;3.10;;;20.50;99.90;;;;;;4230892;28;20589;-77
2022/11/19 00:19:58;;;;;;;7.07;3.80;;;20.40;99.90;;;;;;4239646;27;20560;-77
2022/11/19 00:22:01;;;;;;;6.22;3.05;;;20.40;99.90;;;;;;4239166;27;20623;-76
2022/11/19 00:24:03;;;;;;;4.97;3.78;;;20.40;99.90;;;;;;4239896;27;20201;-77
2022/11/19 00:26:07;;;;;;;6.35;3.33;;;20.40;99.90;;;;;;4238426;27;20218;-77
2022/11/19 00:28:10;;;;;;;5.05;3.53;;;20.40;99.90;;;;;;4233511;27;20218;-77
2022/11/19 00:30:15;;;;;;;4.80;3.15;;;20.40;99.90;;;;;;4241636;27;20209;-77
2022/11/19 00:32:17;;;;;;;5.70;3.40;;;20.40;99.90;;;;;;4247812;27;20355;-77
2022/11/19 00:34:20;;;;;;;4.72;3.03;;;20.40;99.90;;;;;;4247900;27;20286;-77
2022/11/19 00:36:23;;;;;;;4.38;2.95;;;20.40;99.90;;;;;;4248001;27;20213;-77
2022/11/19 00:38:25;;;;;;;6.10;3.28;;;20.40;99.90;;;;;;4247984;27;20262;-77
2022/11/19 00:40:27;;;;;;;4.60;3.28;;;20.40;99.90;;;;;;4238438;27;20255;-77
2022/11/19 00:42:30;;;;;;;5.35;3.15;;;20.40;99.90;;;;;;4238602;27;20286;-76
2022/11/19 00:44:32;;;;;;;3.88;3.20;;;20.40;99.90;;;;;;4243931;27;20546;-76
2022/11/19 00:46:35;;;;;;;3.58;2.92;;;20.40;99.90;;;;;;4245156;27;20645;-77
2022/11/19 00:48:38;;;;;;;5.55;2.70;;;20.40;99.90;;;;;;4243485;27;20209;-77
2022/11/19 00:50:40;;;;;;;4.15;2.97;;;20.40;99.90;;;;;;4244587;27;20217;-77
2022/11/19 00:52:42;;;;;;;5.50;3.30;;;20.30;99.90;;;;;;4245119;27;20213;-77
2022/11/19 00:54:45;;;;;;;4.55;3.15;;;20.30;99.90;;;;;;4244486;27;20622;-77
2022/11/19 00:56:47;;;;;;;4.50;3.15;;;20.40;99.90;;;;;;4244459;27;20567;-77
2022/11/19 00:58:50;;;;;;;4.15;2.78;;;20.40;99.90;;;;;;4245494;27;20205;-77
2022/11/19 01:00:54;;;;;;;5.45;3.58;;;20.30;99.90;;;;;;4245342;27;20221;-77
2022/11/19 01:02:57;;;;;;;4.78;3.38;;;20.30;99.90;;;;;;4243942;27;20217;-77
2022/11/19 01:04:59;;;;;;;4.10;3.33;;;20.30;99.90;;;;;;4245349;27;20213;-77
2022/11/19 01:07:02;;;;;;;4.28;3.22;;;20.30;99.90;;;;;;4246027;27;20217;-77
2022/11/19 01:09:04;;;;;;;4.75;3.25;;;20.30;99.90;;;;;;4246142;27;20273;-77
2022/11/19 01:11:08;;;;;;;4.15;2.85;;;20.30;99.90;;;;;;4243006;27;20271;-77
2022/11/19 01:15:30;;;;;;;5.18;3.17;;;20.30;99.90;;;;;;4247471;27;20213;-77
2022/11/19 01:17:34;;;;;;;4.05;2.90;;;20.30;99.90;;;;;;4246860;27;20289;-77
2022/11/19 01:19:36;;;;;;;3.45;2.75;;;20.30;99.90;;;;;;4240189;27;20609;-77
2022/11/19 01:21:39;;;;;;;5.00;3.22;;;20.30;99.90;;;;;;4247263;27;20270;-76
2022/11/19 01:23:43;;;;;;;6.10;3.30;;;20.20;99.90;;;;;;4240646;27;20259;-77
2022/11/19 01:25:45;;;;;;;4.80;3.00;;;20.20;99.90;;;;;;4229912;28;20206;-77
2022/11/19 01:27:47;;;;;;;4.43;3.28;;;20.20;99.90;;;;;;4229989;28;20263;-77
2022/11/19 01:29:50;;;;;;;4.50;3.47;;;20.20;99.90;;;;;;4234442;27;20246;-77
2022/11/19 01:31:52;;;;;;;4.10;3.38;;;20.30;99.90;;;;;;4246845;27;20718;-77
2022/11/19 01:33:56;;;;;;;4.50;3.03;;;20.20;99.90;;;;;;4239015;27;20259;-77
2022/11/19 01:36:00;;;;;;;4.82;3.53;;;20.20;99.90;;;;;;4232040;27;20209;-77
2022/11/19 01:38:04;;;;;;;4.90;3.03;;;20.20;99.90;;;;;;4238914;27;20217;-77
2022/11/19 01:40:07;;;;;;;4.40;3.00;;;20.20;99.90;;;;;;4242598;27;20225;-77
2022/11/19 01:42:48;;;;;;;5.93;3.10;;;20.20;99.90;;;;;;4236462;27;20251;-77
2022/11/19 01:45:02;;;;;;;4.38;3.30;;;20.20;99.90;;;;;;4229718;28;20214;-77
2022/11/19 01:47:05;;;;;;;4.93;3.13;;;20.20;99.90;;;;;;4226157;28;20266;-77
2022/11/19 01:49:12;;;;;;;4.35;3.47;;;20.20;99.90;;;;;;4245321;27;20725;-77
2022/11/19 01:51:20;;;;;;;5.40;3.45;;;20.20;99.90;;;;;;4229632;28;20609;-77
2022/11/19 01:53:26;;;;;;;4.05;3.00;;;20.20;99.90;;;;;;4234162;27;20220;-77
2022/11/19 01:55:29;;;;;;;5.43;3.30;;;20.20;99.90;;;;;;4246054;27;20232;-77
2022/11/19 01:57:32;;;;;;;4.60;3.40;;;20.20;99.90;;;;;;4241793;27;20658;-77
2022/11/19 01:59:34;;;;;;;5.55;3.30;;;20.20;99.90;;;;;;4229934;28;20206;-77
2022/11/19 02:01:37;;;;;;;4.65;3.03;;;20.20;99.90;;;;;;4229261;28;20209;-77
2022/11/19 02:03:40;;;;;;;5.57;2.92;;;20.20;99.90;;;;;;4229631;28;20305;-77
2022/11/19 02:05:44;;;;;;;4.38;3.03;;;20.10;99.90;;;;;;4229071;28;20264;-77
2022/11/19 02:07:53;;;;;;;4.00;3.00;;;20.10;99.90;;;;;;4246032;27;20209;-77
2022/11/19 02:09:55;;;;;;;5.55;3.25;;;20.20;99.90;;;;;;4239056;27;20214;-77
2022/11/19 02:12:14;;;;;;;3.90;3.00;;;20.10;99.90;;;;;;4229342;28;20210;-77
2022/11/19 02:14:30;;;;;;;4.90;3.22;;;20.10;99.90;;;;;;4240487;27;20230;-77
2022/11/19 02:16:40;;;;;;;4.68;3.25;;;20.10;99.90;;;;;;4246328;27;20217;-77
2022/11/19 02:18:48;;;;;;;4.38;3.10;;;20.10;99.90;;;;;;4243322;27;20242;-77
2022/11/19 02:21:01;;;;;;;6.45;3.42;;;20.10;99.90;;;;;;4245891;27;20694;-77
2022/11/19 02:23:34;;;;;;;4.15;3.15;;;20.10;99.90;;;;;;4229659;27;20748;-77
2022/11/19 02:25:55;;;;;;;4.13;2.80;;;20.10;99.90;;;;;;4234872;27;20290;-77
2022/11/19 02:28:22;;;;;;;5.05;2.85;;;20.10;99.90;;;;;;4238346;27;20254;-77
2022/11/19 02:30:29;;;;;;;4.57;3.25;;;20.10;99.90;;;;;;4246083;27;20209;-77
2022/11/19 02:32:34;;;;;;;6.05;3.17;;;20.10;99.90;;;;;;4245775;27;20262;-77
2022/11/19 02:34:41;;;;;;;4.82;3.13;;;20.10;99.90;;;;;;4245661;27;20228;-77
2022/11/19 02:36:48;;;;;;;4.97;3.10;;;20.10;99.90;;;;;;4245595;27;20621;-77
2022/11/19 02:38:56;;;;;;;4.03;3.08;;;20.10;99.90;;;;;;4238164;27;20262;-77
2022/11/19 02:41:32;;;;;;;4.80;3.20;;;20.00;99.90;;;;;;4229181;28;20217;-77
2022/11/19 02:43:34;;;;;;;4.03;2.78;;;20.10;99.90;;;;;;4232431;27;20266;-77
2022/11/19 02:45:41;;;;;;;3.33;3.00;;;20.00;99.90;;;;;;4234715;27;20609;-77
2022/11/19 02:47:47;;;;;;;4.57;2.78;;;20.10;99.90;;;;;;4245824;27;20232;-77
2022/11/19 02:49:54;;;;;;;4.32;3.35;;;20.00;99.90;;;;;;4246243;27;20648;-78
2022/11/19 02:51:57;;;;;;;5.47;3.50;;;20.00;99.90;;;;;;4245774;27;20248;-77
2022/11/19 02:53:59;;;;;;;5.22;3.28;;;20.00;99.90;;;;;;4252673;27;20209;-77
2022/11/19 02:56:12;;;;;;;6.00;3.47;;;20.00;99.90;;;;;;4245392;27;20241;-77
2022/11/19 03:05:45;;;;;;;6.10;3.38;;;20.00;99.90;;;;;;4193497;28;20191;-77
2022/11/19 03:07:49;;;;;;;4.20;3.28;;;20.00;99.90;;;;;;4198150;28;20257;-77
2022/11/19 03:09:55;;;;;;;5.97;2.95;;;20.00;99.90;;;;;;4245673;27;20213;-77
2022/11/19 03:12:04;;;;;;;4.63;3.00;;;20.00;99.90;;;;;;4245311;28;20209;-76
2022/11/19 03:16:43;;;;;;;5.40;3.42;;;20.00;99.90;;;;;;4245969;28;20201;-76
2022/11/19 03:18:50;;;;;;;3.80;2.50;;;20.00;99.90;;;;;;4230092;28;20534;-76
2022/11/19 03:20:56;;;;;;;5.75;2.85;;;20.00;99.90;;;;;;4244891;28;20247;-76
2022/11/19 03:23:01;;;;;;;5.28;3.53;;;20.00;99.90;;;;;;4228821;28;20273;-77
2022/11/19 03:25:09;;;;;;;4.75;3.00;;;20.00;99.90;;;;;;4244433;28;20217;-77
2022/11/19 03:27:19;;;;;;;5.43;3.15;;;20.00;99.90;;;;;;4230523;28;20201;-77
2022/11/19 03:29:24;;;;;;;4.22;2.85;;;20.00;99.90;;;;;;4242229;28;20225;-77
2022/11/19 03:31:29;;;;;;;4.15;3.28;;;20.00;99.90;;;;;;4243476;28;20669;-77
2022/11/19 03:33:36;;;;;;;4.32;2.88;;;19.90;99.90;;;;;;4240633;28;20209;-77
2022/11/19 03:35:43;;;;;;;5.32;3.15;;;20.00;99.90;;;;;;4234562;28;20232;-77
2022/11/19 03:37:51;;;;;;;3.83;3.15;;;20.00;99.90;;;;;;4246992;27;20212;-77
2022/11/19 03:39:57;;;;;;;4.00;3.10;;;19.90;99.90;;;;;;4248358;27;20269;-77
2022/11/19 03:42:00;;;;;;;3.08;2.42;;;20.00;99.90;;;;;;4236950;28;20214;-77
2022/11/19 03:44:06;;;;;;;5.57;3.10;;;20.00;99.90;;;;;;4228847;28;20662;-77
2022/11/19 03:46:14;;;;;;;5.13;2.92;;;19.90;99.90;;;;;;4228139;28;20339;-77
2022/11/19 03:48:18;;;;;;;3.17;2.58;;;19.90;99.90;;;;;;4228318;28;20270;-77
2022/11/19 03:50:29;;;;;;;3.88;3.00;;;19.90;99.90;;;;;;4244681;27;20668;-77
2022/11/19 03:52:32;;;;;;;3.95;2.78;;;19.90;99.90;;;;;;4243707;27;20218;-77
2022/11/19 03:54:34;;;;;;;4.45;2.70;;;19.90;99.90;;;;;;4231745;28;20214;-77
2022/11/19 03:56:39;;;;;;;3.95;2.85;;;19.90;99.90;;;;;;4245287;27;20233;-77
2022/11/19 03:58:43;;;;;;;4.70;3.17;;;19.90;99.90;;;;;;4248350;27;20220;-76
2022/11/19 04:00:46;;;;;;;3.60;2.60;;;19.90;99.90;;;;;;4248310;27;20572;-77
2022/11/19 04:02:48;;;;;;;3.15;2.45;;;19.90;99.90;;;;;;4248260;27;20261;-77
2022/11/19 04:04:50;;;;;;;5.28;3.03;;;19.90;99.90;;;;;;4248312;27;20236;-77
2022/11/19 04:06:54;;;;;;;4.35;2.90;;;19.90;99.90;;;;;;4248531;27;21117;-77
2022/11/19 04:08:56;;;;;;;3.85;2.67;;;19.90;99.90;;;;;;4231985;27;20221;-77
2022/11/19 04:10:59;;;;;;;3.47;2.90;;;19.90;99.90;;;;;;4232074;28;20605;-77
2022/11/19 04:13:02;;;;;;;3.53;3.13;;;19.90;99.90;;;;;;4247125;27;20212;-77
2022/11/19 04:15:05;;;;;;;3.35;2.60;;;19.90;99.90;;;;;;4232331;27;20669;-77
2022/11/19 04:17:07;;;;;;;5.40;3.08;;;19.90;99.90;;;;;;4244216;27;20272;-77
2022/11/19 04:19:10;;;;;;;5.88;2.95;;;19.80;99.90;;;;;;4235597;27;20236;-78
2022/11/19 04:21:12;;;;;;;4.30;2.97;;;19.80;99.90;;;;;;4233258;27;20278;-78
2022/11/19 04:23:16;;;;;;;4.03;2.83;;;19.80;99.90;;;;;;4245706;27;20265;-78
2022/11/19 04:25:18;;;;;;;3.30;2.72;;;19.90;99.90;;;;;;4233192;27;20608;-78
2022/11/19 04:27:20;;;;;;;3.25;2.80;;;19.90;99.90;;;;;;4245037;27;20218;-78
2022/11/19 04:29:22;;;;;;;4.03;2.70;;;19.80;99.90;;;;;;4234996;27;20270;-78
2022/11/19 04:31:25;;;;;;;3.58;2.90;;;19.80;99.90;;;;;;4247679;27;20353;-78
2022/11/19 04:33:27;;;;;;;4.93;3.30;;;19.80;99.90;;;;;;4244111;27;20565;-78
2022/11/19 04:35:29;;;;;;;4.15;3.03;;;19.80;99.90;;;;;;4244987;27;20225;-78
2022/11/19 04:37:32;;;;;;;5.13;3.00;;;19.80;99.90;;;;;;4239079;27;20213;-78
2022/11/19 04:39:35;;;;;;;3.75;2.70;;;19.80;99.90;;;;;;4248179;27;20729;-78
2022/11/19 04:41:38;;;;;;;3.72;2.70;;;19.80;99.90;;;;;;4247094;27;20736;-78
2022/11/19 04:43:41;;;;;;;3.05;2.65;;;19.80;99.90;;;;;;4240552;27;20259;-78
2022/11/19 04:45:43;;;;;;;4.22;2.75;;;19.80;99.90;;;;;;4237190;27;20262;-78
2022/11/19 04:47:45;;;;;;;3.33;2.72;;;19.80;99.90;;;;;;4247887;27;20645;-78
2022/11/19 04:49:48;;;;;;;3.95;3.00;;;19.80;99.90;;;;;;4247570;27;20258;-78
2022/11/19 04:51:50;;;;;;;4.78;3.03;;;19.80;99.90;;;;;;4240280;27;20210;-78
2022/11/19 04:53:54;;;;;;;4.97;3.13;;;19.80;99.90;;;;;;4238483;27;20213;-78
2022/11/19 04:55:57;;;;;;;3.13;2.60;;;19.80;99.90;;;;;;4247514;27;20274;-78
2022/11/19 04:58:00;;;;;;;3.78;2.40;;;19.80;99.90;;;;;;4238920;27;20270;-78
2022/11/19 05:00:02;;;;;;;4.05;2.83;;;19.80;99.90;;;;;;4238232;27;20641;-78
2022/11/19 05:02:04;;;;;;;4.22;2.67;;;19.80;99.90;;;;;;4244340;27;20217;-78
2022/11/19 05:04:07;;;;;;;3.92;2.75;;;19.80;99.90;;;;;;4244753;27;20258;-78
2022/11/19 05:06:09;;;;;;;3.45;2.58;;;19.80;99.90;;;;;;4244867;27;20205;-78
2022/11/19 05:08:11;;;;;;;4.07;2.95;;;19.80;99.90;;;;;;4245418;27;20217;-78
2022/11/19 05:10:14;;;;;;;4.40;2.70;;;19.70;99.90;;;;;;4245306;27;20229;-77
2022/11/19 05:12:18;;;;;;;4.30;3.00;;;19.70;99.90;;;;;;4245781;27;20255;-76
2022/11/19 05:14:20;;;;;;;2.95;2.63;;;19.70;99.90;;;;;;4245629;27;20254;-77
2022/11/19 05:16:22;;;;;;;3.95;2.70;;;19.70;99.90;;;;;;4244356;27;20228;-77
2022/11/19 05:18:25;;;;;;;3.50;2.53;;;19.70;99.90;;;;;;4245888;27;20702;-77
2022/11/19 05:20:27;;;;;;;3.20;2.33;;;19.70;99.90;;;;;;4229166;27;20251;-77
2022/11/19 05:22:30;;;;;;;4.88;2.92;;;19.70;99.90;;;;;;4227314;28;20623;-77
2022/11/19 05:24:32;;;;;;;4.88;3.10;;;19.70;99.90;;;;;;4228837;27;20289;-77
2022/11/19 05:26:34;;;;;;;4.15;2.83;;;19.70;99.90;;;;;;4227639;28;20206;-77
2022/11/19 05:28:38;;;;;;;3.63;2.90;;;19.70;99.90;;;;;;4227753;28;20210;-76
2022/11/19 05:30:40;;;;;;;4.72;3.05;;;19.70;99.90;;;;;;4229172;27;20267;-77
2022/11/19 05:32:43;;;;;;;3.58;2.80;;;19.70;99.90;;;;;;4229625;27;20669;-77
2022/11/19 05:34:45;;;;;;;4.68;3.03;;;19.70;99.90;;;;;;4227974;27;20358;-77
2022/11/19 05:36:47;;;;;;;3.88;2.88;;;19.70;99.90;;;;;;4229601;27;20230;-77
2022/11/19 05:38:50;;;;;;;3.17;2.72;;;19.70;99.90;;;;;;4228909;28;20206;-77
2022/11/19 05:40:52;;;;;;;2.92;2.45;;;19.70;99.90;;;;;;4228068;28;20259;-77
2022/11/19 05:42:54;;;;;;;4.72;2.70;;;19.70;99.90;;;;;;4227153;28;20274;-77
2022/11/19 05:44:58;;;;;;;3.83;2.78;;;19.70;99.90;;;;;;4227224;28;20410;-77
2022/11/19 05:47:00;;;;;;;5.75;3.00;;;19.70;99.90;;;;;;4227554;28;20668;-77
2022/11/19 05:49:03;;;;;;;4.82;3.05;;;19.70;99.90;;;;;;4227621;28;20271;-77
2022/11/19 05:51:05;;;;;;;3.70;2.50;;;19.70;99.90;;;;;;4226873;28;20226;-77
2022/11/19 05:53:08;;;;;;;3.42;2.42;;;19.70;99.90;;;;;;4224594;28;20624;-77
2022/11/19 05:55:10;;;;;;;4.43;2.90;;;19.60;99.90;;;;;;4227867;28;20275;-77
2022/11/19 05:57:12;;;;;;;3.30;2.35;;;19.70;99.90;;;;;;4228222;28;20233;-77
2022/11/19 05:59:15;;;;;;;2.33;2.13;;;19.70;99.90;;;;;;4228685;28;20218;-77
2022/11/19 06:01:24;;;;;;;3.88;2.97;;;19.70;99.90;;;;;;4228776;28;20218;-77
2022/11/19 06:03:27;;;;;;;4.38;2.88;;;19.70;99.90;;;;;;4228174;28;20209;-77
2022/11/19 06:05:29;;;;;;;3.92;2.80;;;19.60;99.90;;;;;;4227469;28;20210;-79
2022/11/19 06:07:31;;;;;;;3.30;2.60;;;19.70;99.90;;;;;;4227782;28;20255;-78
2022/11/19 06:09:34;;;;;;;3.72;2.80;;;19.70;99.90;;;;;;4228713;28;20209;-78
2022/11/19 06:11:49;;;;;;;3.47;2.63;;;19.60;99.90;;;;;;4227987;28;20214;-78
2022/11/19 06:13:51;;;;;;;3.45;2.60;;;19.70;99.90;;;;;;4226700;28;20259;-78
2022/11/19 06:15:53;;;;;;;4.00;2.75;;;19.70;99.90;;;;;;4228737;28;20206;-78
2022/11/19 06:17:57;;;;;;;3.88;2.65;;;19.70;99.90;;;;;;4228007;28;20283;-78
2022/11/19 06:20:00;;;;;;;3.55;2.60;;;19.60;99.90;;;;;;4233891;27;20225;-78
2022/11/19 06:22:02;;;;;;;4.30;2.70;;;19.60;99.90;;;;;;4238113;27;20213;-78
2022/11/19 06:24:05;;;;;;;4.50;2.83;;;19.60;99.90;;;;;;4237601;27;20311;-78
2022/11/19 06:26:08;;;;;;;4.47;2.60;;;19.60;99.90;;;;;;4236397;27;20218;-77
2022/11/19 06:28:10;;;;;;;4.13;2.80;;;19.60;99.90;;;;;;4236689;27;20209;-77
2022/11/19 06:30:14;;;;;;;3.70;2.58;;;19.60;99.90;;;;;;4236834;27;20217;-77
2022/11/19 06:32:17;;;;;;;3.85;2.67;;;19.60;99.90;;;;;;4238785;27;20661;-77
2022/11/19 06:34:20;;;;;;;4.32;2.85;;;19.60;99.90;;;;;;4233231;27;20264;-77
2022/11/19 06:36:23;;;;;;;3.90;2.80;;;19.60;99.90;;;;;;4236222;27;20646;-77
2022/11/19 06:38:26;;;;;;;4.13;2.50;;;19.60;99.90;;;;;;4239274;27;20213;-77
2022/11/19 06:40:28;;;;;;;3.30;2.60;;;19.60;99.90;;;;;;4235314;27;20205;-77
2022/11/19 06:42:36;;;;;;;4.07;2.72;;;19.60;99.90;;;;;;4237949;27;20213;-77
2022/11/19 06:44:38;;;;;;;4.28;2.60;;;19.60;99.90;;;;;;4233480;27;20349;-77
2022/11/19 06:46:41;;;;;;;3.78;2.60;;;19.50;99.90;;;;;;4240642;27;20266;-77
2022/11/19 06:48:43;;;;;;;4.85;2.80;;;19.50;99.90;;;;;;4236149;27;21006;-77
2022/11/19 06:50:47;;;;;;;4.00;2.90;;;19.60;99.90;;;;;;4240047;27;20214;-77
2022/11/19 06:52:49;;;;;;;3.42;2.58;;;19.50;99.90;;;;;;4237371;27;20221;-77
2022/11/19 06:54:52;;;;;;;3.95;2.42;;;19.60;99.90;;;;;;4239781;27;20262;-77
2022/11/19 06:56:54;;;;;;;5.20;2.83;;;19.60;99.90;;;;;;4239795;27;20281;-77
2022/11/19 06:58:58;;;;;;;4.07;2.63;;;19.60;99.90;;;;;;4240538;27;20274;-77
2022/11/19 07:01:00;;;;;;;3.90;2.97;;;19.60;99.90;;;;;;4237519;27;20213;-77
2022/11/19 07:03:03;;;;;;;3.60;2.58;;;19.60;99.90;;;;;;4240796;27;20216;-77
2022/11/19 07:05:06;;;;;;;4.45;2.85;;;19.60;99.90;;;;;;4238980;27;20247;-77
2022/11/19 07:07:10;;;;;;;3.95;2.72;;;19.50;99.90;;;;;;4239785;27;20277;-77
2022/11/19 07:09:12;;;;;;;3.00;2.38;;;19.60;99.90;;;;;;4239300;27;20286;-77
2022/11/19 07:11:26;;;;;;;3.67;2.60;;;19.60;99.90;;;;;;4239418;28;20251;-77
2022/11/19 07:13:56;;;;;;;3.10;2.47;;;19.60;99.90;;;;;;4239363;28;20205;-77
2022/11/19 07:15:51;;;;;;;3.72;2.75;;;19.50;99.90;;;;;;4238342;28;20269;-77
2022/11/19 07:17:54;;;;;;;2.92;2.63;;;19.50;99.90;;;;;;4240663;28;20233;-77
2022/11/19 07:19:56;;;;;;;3.90;2.40;;;19.50;99.90;;;;;;4236156;27;20286;-77
2022/11/19 07:21:58;;;;;;;4.72;2.92;;;19.50;99.90;;;;;;4236040;28;20208;-77
2022/11/19 07:24:04;;;;;;;4.60;2.78;;;19.50;99.90;;;;;;4240160;27;20212;-77
2022/11/19 07:26:06;;;;;;;3.17;2.42;;;19.50;99.90;;;;;;4242664;27;20209;-77
2022/11/19 07:28:09;;;;;;;3.47;2.53;;;19.50;99.90;;;;;;4242923;27;20208;-77
2022/11/19 07:30:12;;;;;;;3.42;2.80;;;19.50;99.90;;;;;;4242841;27;20209;-77
2022/11/19 07:32:15;;;;;;;3.58;2.70;;;19.50;99.90;;;;;;4242873;27;20267;-78
2022/11/19 07:34:17;;;;;;;3.47;2.72;;;19.50;99.90;;;;;;4240343;27;20225;-77
2022/11/19 07:36:20;;;;;;;4.78;2.85;;;19.50;99.90;;;;;;4237434;27;20225;-78
2022/11/19 07:38:22;;;;;;;3.55;2.70;;;19.60;99.90;;;;;;4242400;27;20240;-77
2022/11/19 07:40:26;;;;;;;4.78;2.83;;;19.50;99.90;;;;;;4242978;27;20213;-77
2022/11/19 07:44:48;;;;;;;3.72;2.78;;;19.50;99.90;;;;;;4243477;27;20182;-77
2022/11/19 07:46:50;;;;;;;3.50;3.00;;;19.50;99.90;;;;;;4243103;27;20258;-78
2022/11/19 07:48:54;;;;;;;3.05;2.50;;;19.50;99.90;;;;;;4243747;27;20273;-77
2022/11/19 07:50:56;;;;;;;3.42;2.55;;;19.50;99.90;;;;;;4240956;27;20266;-78
2022/11/19 07:52:59;;;;;;;3.20;2.53;;;19.50;99.90;;;;;;4239835;27;20728;-77
2022/11/19 07:55:01;;;;;;;4.65;2.88;;;19.50;99.90;;;;;;4241754;27;20267;-77
2022/11/19 07:57:05;;;;;;;2.90;2.42;;;19.40;99.90;;;;;;4238325;27;20213;-78
2022/11/19 07:59:07;;;;;;;2.58;2.38;;;19.50;99.90;;;;;;4235916;27;20226;-77
2022/11/19 08:01:11;;;;;;;3.80;2.75;;;19.50;99.90;;;;;;4243048;27;20212;-78
2022/11/19 08:03:13;;;;;;;3.33;2.75;;;19.50;99.90;;;;;;4242728;27;20229;-77
2022/11/19 08:05:15;;;;;;;3.28;2.55;;;19.40;99.90;;;;;;4244356;27;20217;-77
2022/11/19 08:07:18;;;;;;;4.18;3.13;;;19.40;99.90;;;;;;4241950;27;20213;-77
2022/11/19 08:09:20;;;;;;;3.05;2.75;;;19.40;99.90;;;;;;4238106;27;20259;-77
2022/11/19 08:11:24;;;;;;;3.67;2.60;;;19.40;99.90;;;;;;4244054;27;20205;-77
2022/11/19 08:13:28;;;;;;;3.65;2.65;;;19.40;99.90;;;;;;4237265;27;20217;-77
2022/11/19 08:15:30;;;;;;;3.47;2.50;;;19.40;99.90;;;;;;4240747;27;20267;-78
2022/11/19 08:19:52;;;;;;;4.13;2.83;;;19.40;99.90;;;;;;4239152;27;20677;-78
2022/11/19 08:21:55;;;;;;;3.65;2.58;;;19.40;99.90;;;;;;4240127;27;20280;-78
2022/11/19 08:23:57;;;;;;;4.63;2.83;;;19.40;99.90;;;;;;4241575;27;20658;-77
2022/11/19 08:26:00;;;;;;;3.88;2.38;;;19.40;99.90;;;;;;4239026;27;20274;-77
2022/11/19 08:28:02;;;;;;;3.40;2.83;;;19.40;99.90;;;;;;4238955;27;20205;-77
2022/11/19 08:30:07;;;;;;;3.83;2.67;;;19.40;99.90;;;;;;4240651;27;20586;-77
2022/11/19 08:32:10;;;;;;;3.08;2.50;;;19.30;99.90;;;;;;4238527;27;20669;-77
2022/11/19 08:34:12;;;;;;;3.10;2.70;;;19.40;99.90;;;;;;4239369;27;20282;-77
2022/11/19 08:36:14;;;;;;;3.25;2.70;;;19.30;99.90;;;;;;4240598;27;20213;-77
2022/11/19 08:38:17;;;;;;;2.72;2.42;;;19.30;99.90;;;;;;4241016;27;20225;-77
2022/11/19 08:40:19;;;;;;;3.65;2.58;;;19.30;99.90;;;;;;4237039;27;20218;-77
2022/11/19 08:44:42;;;;;;;2.92;2.42;;;19.30;99.90;;;;;;4238963;27;20296;-78
2022/11/19 08:46:46;;;;;;;3.13;2.70;;;19.30;99.90;;;;;;4235100;27;20210;-78
2022/11/19 08:48:48;;;;;;;3.65;2.70;;;19.30;99.90;;;;;;4234354;27;20214;-78
2022/11/19 08:50:50;;;;;;;2.88;2.25;;;19.30;99.90;;;;;;4238299;27;20210;-78
2022/11/19 08:52:57;;;;;;;3.55;2.50;;;19.30;99.90;;;;;;4239157;27;20214;-77
2022/11/19 08:54:59;;;;;;;3.00;2.65;;;19.30;99.90;;;;;;4235998;27;20210;-77
2022/11/19 08:57:01;;;;;;;2.97;2.33;;;19.30;99.90;;;;;;4238084;27;20255;-77
2022/11/19 08:59:04;;;;;;;2.83;2.53;;;19.30;99.90;;;;;;4236881;27;20770;-77
2022/11/19 09:01:10;;;;;;;2.65;2.25;;;19.30;99.90;;;;;;4240924;27;20281;-77
2022/11/19 09:03:14;;;;;;;2.53;2.28;;;19.30;99.90;;;;;;4241021;27;20318;-77
2022/11/19 09:05:16;;;;;;;3.38;2.80;;;19.30;99.90;;;;;;4241259;27;20718;-77
2022/11/19 09:07:19;;;;;;;2.42;2.22;;;19.30;99.90;;;;;;4241644;27;20733;-77
2022/11/19 09:09:21;;;;;;;2.85;2.40;;;19.30;99.90;;;;;;4241435;27;20205;-77
2022/11/19 09:11:24;;;;;;;4.15;2.58;;;19.30;99.90;;;;;;4241566;27;20209;-78
2022/11/19 09:13:26;;;;;;;3.90;3.08;;;19.30;99.90;;;;;;4241672;27;20649;-77
2022/11/19 09:15:28;;;;;;;3.03;2.72;;;19.20;99.90;;;;;;4239822;27;20271;-77
2022/11/19 09:17:31;;;;;;;2.38;2.10;;;19.30;99.90;;;;;;4241402;27;20277;-77
2022/11/19 09:19:34;;;;;;;2.30;2.08;;;19.30;99.90;;;;;;4241854;27;20274;-77
2022/11/19 09:21:37;;;;;;;2.88;2.58;;;19.20;99.90;;;;;;4240934;27;20209;-77
2022/11/19 09:23:40;;;;;;;3.05;2.25;;;19.30;99.90;;;;;;4240750;27;20257;-78
2022/11/19 09:25:42;;;;;;;3.65;2.38;;;19.20;99.90;;;;;;4240948;27;20670;-78
2022/11/19 09:27:44;;;;;;;3.17;2.20;;;19.20;99.90;;;;;;4240789;27;20206;-77
2022/11/19 09:29:47;;;;;;;2.85;2.33;;;19.20;99.90;;;;;;4240551;27;20254;-78
2022/11/19 09:31:49;;;;;;;2.80;2.40;;;19.30;99.90;;;;;;4241603;27;20210;-78
2022/11/19 09:33:53;;;;;;;2.90;2.33;;;19.20;99.90;;;;;;4240111;27;20205;-77
2022/11/19 09:35:57;;;;;;;2.97;2.38;;;19.20;99.90;;;;;;4241180;27;20209;-77
2022/11/19 09:37:59;;;;;;;2.33;2.13;;;19.20;99.90;;;;;;4238593;27;20695;-78
2022/11/19 09:40:01;;;;;;;2.40;2.20;;;19.20;99.90;;;;;;4238123;27;20233;-79
2022/11/19 09:42:14;;;;;;;2.88;2.05;;;19.20;99.90;;;;;;4241557;27;20213;-79
2022/11/19 09:44:35;;;;;;;2.47;2.22;;;19.20;99.90;;;;;;4240418;27;20278;-79
2022/11/19 09:46:44;;;;;;;2.80;2.30;;;19.20;99.90;;;;;;4237132;27;20217;-79
2022/11/19 09:48:49;;;;;;;2.03;1.83;;;19.20;99.90;;;;;;4239568;27;20213;-78
2022/11/19 09:50:58;;;;;;;2.80;2.42;;;19.20;99.90;;;;;;4241948;27;20213;-79
2022/11/19 09:53:07;;;;;;;2.30;2.08;;;19.20;99.90;;;;;;4238640;27;20216;-78
2022/11/19 09:55:16;;;;;;;2.65;1.95;;;19.20;99.90;;;;;;4235375;27;20270;-79
2022/11/19 09:57:26;;;;;;;2.30;1.85;;;19.20;99.90;;;;;;4240702;27;20209;-78
2022/11/19 09:59:35;;;;;;;2.65;2.25;;;19.20;99.90;;;;;;4237663;27;20285;-79
2022/11/19 10:01:38;;;;;;;2.55;2.20;;;19.10;99.90;;;;;;4236521;27;20300;-79
2022/11/19 10:03:45;;;;;;;2.50;1.98;;;19.10;99.90;;;;;;4240978;27;20713;-79
2022/11/19 10:06:01;;;;;;;2.00;1.80;;;19.20;99.90;;;;;;4239951;27;20254;-78
2022/11/19 10:08:17;;;;;;;2.45;2.20;;;19.10;99.90;;;;;;4237045;27;20622;-79
2022/11/19 10:10:32;;;;;;;3.20;2.20;;;19.10;99.90;;;;;;4240676;27;20270;-78
2022/11/19 10:13:10;;;;;;;2.38;2.17;;;19.10;99.90;;;;;;4234516;27;20214;-79
2022/11/19 10:15:23;;;;;;;2.50;2.30;;;19.10;99.90;;;;;;4240425;27;20266;-81
2022/11/19 10:17:37;;;;;;;4.22;2.63;;;19.10;99.90;;;;;;4242035;27;20242;-80
2022/11/19 10:19:47;;;;;;;4.85;2.58;;;19.10;99.90;;;;;;4232021;27;20245;-80
2022/11/19 10:21:58;;;;;;;3.17;1.98;;;19.10;99.90;;;;;;4229696;28;20232;-80
2022/11/19 10:24:16;;;;;;;2.53;2.10;;;19.10;99.90;;;;;;4229638;28;20259;-80
2022/11/19 10:26:24;;;;;;;2.33;2.03;;;19.00;99.90;;;;;;4229857;28;20263;-80
2022/11/19 10:28:29;;;;;;;3.70;2.30;;;19.00;99.90;;;;;;4229505;28;20213;-80
2022/11/19 10:30:32;;;;;;;4.40;2.35;;;19.10;99.90;;;;;;4229392;28;20214;-80
2022/11/19 10:32:40;;;;;;;3.15;2.00;;;19.00;99.90;;;;;;4228954;28;20271;-80
2022/11/19 10:34:43;;;;;;;2.90;2.13;;;19.10;99.90;;;;;;4229353;28;20213;-80
2022/11/19 10:36:50;;;;;;;2.60;2.22;;;19.10;99.90;;;;;;4229842;28;20715;-80
2022/11/19 10:38:57;;;;;;;2.17;1.88;;;19.10;99.90;;;;;;4229316;28;20592;-80
2022/11/19 10:41:05;;;;;;;4.60;2.28;;;19.10;99.90;;;;;;4212831;28;20300;-80
2022/11/19 10:43:16;;;;;;;3.40;2.20;;;19.10;99.90;;;;;;4229292;28;20213;-80
2022/11/19 10:45:21;;;;;;;2.60;2.40;;;19.00;99.90;;;;;;4229087;28;20255;-80
2022/11/19 10:47:36;;;;;;;3.15;2.25;;;19.10;99.90;;;;;;4228764;28;20232;-80
2022/11/19 10:49:41;;;;;;;4.22;2.22;;;19.00;99.90;;;;;;4228018;28;20251;-80
2022/11/19 10:51:43;;;;;;;2.60;2.05;;;19.00;99.90;;;;;;4229371;28;20625;-80
2022/11/19 10:53:46;;;;;;;2.30;2.10;;;19.00;99.90;;;;;;4228998;28;20209;-80
2022/11/19 10:55:51;;;;;;;2.78;2.40;;;19.10;99.90;;;;;;4229014;28;20623;-80
2022/11/19 10:58:07;;;;;;;2.40;2.20;;;19.00;99.90;;;;;;4229196;28;20213;-80
2022/11/19 11:00:10;;;;;;;2.40;2.20;;;19.00;99.90;;;;;;4228689;28;20275;-80
2022/11/19 11:02:22;;;;;;;2.55;2.22;;;19.00;99.90;;;;;;4228986;28;20209;-80
2022/11/19 11:04:26;;;;;;;2.60;1.98;;;19.00;99.90;;;;;;4228921;28;20218;-80
2022/11/19 11:06:51;;;;;;;2.97;2.60;;;19.00;99.90;;;;;;4228254;28;20218;-80
2022/11/19 11:08:55;;;;;;;2.67;2.30;;;19.00;99.90;;;;;;4228150;28;20193;-80
2022/11/19 11:10:58;;;;;;;2.30;2.10;;;19.00;99.90;;;;;;4228491;28;20262;-80
2022/11/19 11:15:33;;;;;;;2.47;2.28;;;19.00;99.90;;;;;;4217849;28;20186;-80